sensor_id;sensor_type;location;lat;lon;timestamp;pressure;altitude;pressure_sealevel;temperature;humidity
34031;BME280;20319;28.466;-16.274;2024-02-04T17:14:37;95896.44;;;17.27;44.69
34031;BME280;20319;28.466;-16.274;2024-02-04T17:17:14;95929.50;;;17.24;44.88
34031;BME280;20319;28.466;-16.274;2024-02-04T17:22:46;96098.16;;;18.75;45.42
34031;BME280;20319;28.466;-16.274;2024-02-04T17:25:15;95964.50;;;18.00;45.91
34031;BME280;20319;28.466;-16.274;2024-02-04T17:27:45;96081.78;;;18.80;46.24
34031;BME280;20319;28.466;-16.274;2024-02-04T17:30:13;96037.91;;;18.59;46.73
34031;BME280;20319;28.466;-16.274;2024-02-04T17:32:45;96081.91;;;18.88;47.45
34031;BME280;20319;28.466;-16.274;2024-02-04T17:35:13;96050.19;;;18.70;47.40
34031;BME280;20319;28.466;-16.274;2024-02-04T17:37:39;96087.84;;;18.90;47.76
34031;BME280;20319;28.466;-16.274;2024-02-04T17:40:05;96039.34;;;18.70;48.37
34031;BME280;20319;28.466;-16.274;2024-02-04T17:42:32;96089.28;;;19.01;48.69
34031;BME280;20319;28.466;-16.274;2024-02-04T17:44:59;95938.41;;;18.04;49.22
34031;BME280;20319;28.466;-16.274;2024-02-04T17:47:25;96098.66;;;19.09;49.70
34031;BME280;20319;28.466;-16.274;2024-02-04T17:49:56;95871.59;;;17.62;49.99
34031;BME280;20319;28.466;-16.274;2024-02-04T17:52:23;96069.97;;;18.89;50.48
34031;BME280;20319;28.466;-16.274;2024-02-04T17:54:52;95890.72;;;17.71;50.62
34031;BME280;20319;28.466;-16.274;2024-02-04T17:57:19;96054.81;;;18.70;50.92
34031;BME280;20319;28.466;-16.274;2024-02-04T17:59:45;96096.38;;;18.84;51.29
34031;BME280;20319;28.466;-16.274;2024-02-04T18:02:10;96067.16;;;18.62;51.31
34031;BME280;20319;28.466;-16.274;2024-02-04T18:04:36;96031.75;;;18.35;51.39
34031;BME280;20319;28.466;-16.274;2024-02-04T18:07:02;96101.38;;;18.58;49.49
34031;BME280;20319;28.466;-16.274;2024-02-04T18:09:28;96106.88;;;18.53;48.21
34031;BME280;20319;28.466;-16.274;2024-02-04T18:11:58;96091.19;;;18.32;47.39
34031;BME280;20319;28.466;-16.274;2024-02-04T18:14:26;96127.63;;;18.44;46.94
34031;BME280;20319;28.466;-16.274;2024-02-04T18:16:54;96109.28;;;18.18;46.49
34031;BME280;20319;28.466;-16.274;2024-02-04T18:19:19;96115.06;;;18.11;46.29
34031;BME280;20319;28.466;-16.274;2024-02-04T18:21:45;96112.16;;;18.03;46.17
34031;BME280;20319;28.466;-16.274;2024-02-04T18:24:12;96143.53;;;18.09;46.02
34031;BME280;20319;28.466;-16.274;2024-02-04T18:26:37;95936.88;;;16.72;46.14
34031;BME280;20319;28.466;-16.274;2024-02-04T18:29:03;96110.81;;;17.58;46.22
34031;BME280;20319;28.466;-16.274;2024-02-04T18:31:30;96139.81;;;17.81;46.24
34031;BME280;20319;28.466;-16.274;2024-02-04T18:33:58;96054.72;;;17.11;46.03
34031;BME280;20319;28.466;-16.274;2024-02-04T18:36:24;95881.41;;;15.93;46.72
34031;BME280;20319;28.466;-16.274;2024-02-04T18:38:57;96117.50;;;17.37;46.79
34031;BME280;20319;28.466;-16.274;2024-02-04T18:41:24;96149.94;;;17.47;50.49
34031;BME280;20319;28.466;-16.274;2024-02-04T18:43:50;96157.28;;;17.41;52.55
34031;BME280;20319;28.466;-16.274;2024-02-04T18:46:17;96061.03;;;16.73;54.90
34031;BME280;20319;28.466;-16.274;2024-02-04T18:48:46;96085.09;;;16.75;57.31
34031;BME280;20319;28.466;-16.274;2024-02-04T18:51:12;96116.84;;;16.93;59.77
34031;BME280;20319;28.466;-16.274;2024-02-04T18:53:43;96119.13;;;16.81;61.73
34031;BME280;20319;28.466;-16.274;2024-02-04T18:56:09;96158.00;;;16.90;63.18
34031;BME280;20319;28.466;-16.274;2024-02-04T18:58:41;96168.78;;;16.95;64.52
34031;BME280;20319;28.466;-16.274;2024-02-04T19:01:09;96141.47;;;16.58;65.54
34031;BME280;20319;28.466;-16.274;2024-02-04T19:03:36;96123.09;;;16.55;66.40
34031;BME280;20319;28.466;-16.274;2024-02-04T19:06:01;96168.69;;;16.71;66.96
34031;BME280;20319;28.466;-16.274;2024-02-04T19:08:30;96143.72;;;16.46;67.06
34031;BME280;20319;28.466;-16.274;2024-02-04T19:10:57;96133.00;;;16.25;66.19
34031;BME280;20319;28.466;-16.274;2024-02-04T19:13:24;96158.34;;;16.35;65.27
34031;BME280;20319;28.466;-16.274;2024-02-04T19:15:54;96149.16;;;16.30;63.35
34031;BME280;20319;28.466;-16.274;2024-02-04T19:18:20;96174.53;;;16.40;61.76
34031;BME280;20319;28.466;-16.274;2024-02-04T19:20:48;96206.16;;;16.39;60.43
34031;BME280;20319;28.466;-16.274;2024-02-04T19:23:15;96189.16;;;16.33;59.55
34031;BME280;20319;28.466;-16.274;2024-02-04T19:25:45;96147.19;;;15.97;58.03
34031;BME280;20319;28.466;-16.274;2024-02-04T19:28:12;96163.16;;;15.89;56.76
34031;BME280;20319;28.466;-16.274;2024-02-04T19:30:41;96098.72;;;15.57;55.44
34031;BME280;20319;28.466;-16.274;2024-02-04T19:33:06;96156.94;;;15.88;54.72
34031;BME280;20319;28.466;-16.274;2024-02-04T19:35:32;96150.50;;;15.79;53.58
34031;BME280;20319;28.466;-16.274;2024-02-04T19:37:58;96155.91;;;15.74;52.51
34031;BME280;20319;28.466;-16.274;2024-02-04T19:40:25;96164.25;;;15.78;51.59
34031;BME280;20319;28.466;-16.274;2024-02-04T19:42:52;96214.16;;;16.05;50.80
34031;BME280;20319;28.466;-16.274;2024-02-04T19:45:20;96214.97;;;16.01;50.45
34031;BME280;20319;28.466;-16.274;2024-02-04T19:47:48;96109.84;;;15.31;49.17
34031;BME280;20319;28.466;-16.274;2024-02-04T19:50:16;96194.50;;;15.80;48.23
34031;BME280;20319;28.466;-16.274;2024-02-04T19:52:44;96211.22;;;15.92;46.55
34031;BME280;20319;28.466;-16.274;2024-02-04T19:55:10;96193.19;;;15.77;45.74
34031;BME280;20319;28.466;-16.274;2024-02-04T19:57:40;96178.63;;;15.63;45.42
34031;BME280;20319;28.466;-16.274;2024-02-04T20:00:07;96228.50;;;15.91;45.13
34031;BME280;20319;28.466;-16.274;2024-02-04T20:02:35;96205.88;;;15.72;44.77
34031;BME280;20319;28.466;-16.274;2024-02-04T20:05:06;96142.50;;;15.34;44.65
34031;BME280;20319;28.466;-16.274;2024-02-04T20:07:32;96221.25;;;15.81;44.32
34031;BME280;20319;28.466;-16.274;2024-02-04T20:09:58;96020.16;;;14.50;44.11
34031;BME280;20319;28.466;-16.274;2024-02-04T20:12:24;96162.72;;;15.37;43.93
34031;BME280;20319;28.466;-16.274;2024-02-04T20:14:52;96021.75;;;14.46;43.92
34031;BME280;20319;28.466;-16.274;2024-02-04T20:17:19;96228.56;;;15.66;43.43
34031;BME280;20319;28.466;-16.274;2024-02-04T20:19:46;96219.44;;;15.42;43.02
34031;BME280;20319;28.466;-16.274;2024-02-04T20:22:12;96199.47;;;15.43;42.53
34031;BME280;20319;28.466;-16.274;2024-02-04T20:24:40;96220.19;;;15.57;42.54
34031;BME280;20319;28.466;-16.274;2024-02-04T20:27:07;96198.94;;;15.41;41.96
34031;BME280;20319;28.466;-16.274;2024-02-04T20:29:34;96227.25;;;15.53;41.56
34031;BME280;20319;28.466;-16.274;2024-02-04T20:32:02;95944.16;;;13.78;40.97
34031;BME280;20319;28.466;-16.274;2024-02-04T20:34:27;96186.22;;;15.16;40.97
34031;BME280;20319;28.466;-16.274;2024-02-04T20:36:55;96200.78;;;15.30;40.42
34031;BME280;20319;28.466;-16.274;2024-02-04T20:39:21;96190.81;;;15.16;40.32
34031;BME280;20319;28.466;-16.274;2024-02-04T20:41:48;96186.50;;;15.15;40.14
34031;BME280;20319;28.466;-16.274;2024-02-04T20:44:20;96248.03;;;15.38;40.00
34031;BME280;20319;28.466;-16.274;2024-02-04T20:46:45;96215.09;;;15.16;40.28
34031;BME280;20319;28.466;-16.274;2024-02-04T20:49:11;96009.56;;;13.78;39.74
34031;BME280;20319;28.466;-16.274;2024-02-04T20:51:37;96250.16;;;15.21;39.15
34031;BME280;20319;28.466;-16.274;2024-02-04T20:54:03;96178.38;;;14.79;39.18
34031;BME280;20319;28.466;-16.274;2024-02-04T20:56:32;96247.47;;;15.16;39.59
34031;BME280;20319;28.466;-16.274;2024-02-04T20:59:01;96265.00;;;15.13;39.67
34031;BME280;20319;28.466;-16.274;2024-02-04T21:01:27;96186.72;;;14.48;39.82
34031;BME280;20319;28.466;-16.274;2024-02-04T21:03:53;96262.28;;;15.03;40.22
34031;BME280;20319;28.466;-16.274;2024-02-04T21:06:20;96255.81;;;14.99;39.95
34031;BME280;20319;28.466;-16.274;2024-02-04T21:08:47;96271.72;;;14.96;39.96
34031;BME280;20319;28.466;-16.274;2024-02-04T21:11:24;96270.09;;;14.90;39.85
34031;BME280;20319;28.466;-16.274;2024-02-04T21:13:50;96275.97;;;14.66;39.89
34031;BME280;20319;28.466;-16.274;2024-02-04T21:16:17;96245.78;;;14.64;39.73
34031;BME280;20319;28.466;-16.274;2024-02-04T21:18:43;96239.28;;;14.45;39.45
34031;BME280;20319;28.466;-16.274;2024-02-04T21:21:09;96297.03;;;14.79;40.07
34031;BME280;20319;28.466;-16.274;2024-02-04T21:23:35;96264.38;;;14.61;39.43
34031;BME280;20319;28.466;-16.274;2024-02-04T21:26:01;96268.94;;;14.55;39.45
34031;BME280;20319;28.466;-16.274;2024-02-04T21:28:27;96209.28;;;14.27;39.07
34031;BME280;20319;28.466;-16.274;2024-02-04T21:30:53;96294.59;;;14.68;39.17
34031;BME280;20319;28.466;-16.274;2024-02-04T21:33:19;96222.47;;;14.23;39.36
34031;BME280;20319;28.466;-16.274;2024-02-04T21:35:47;96251.34;;;14.28;39.54
34031;BME280;20319;28.466;-16.274;2024-02-04T21:38:12;96239.91;;;14.16;39.28
34031;BME280;20319;28.466;-16.274;2024-02-04T21:40:39;96251.53;;;14.21;39.15
34031;BME280;20319;28.466;-16.274;2024-02-04T21:43:09;96148.06;;;13.51;39.24
34031;BME280;20319;28.466;-16.274;2024-02-04T21:45:37;96308.25;;;14.46;38.77
34031;BME280;20319;28.466;-16.274;2024-02-04T21:48:07;96263.09;;;14.12;38.81
34031;BME280;20319;28.466;-16.274;2024-02-04T21:50:34;96262.00;;;14.13;38.83
34031;BME280;20319;28.466;-16.274;2024-02-04T21:53:06;96283.56;;;14.18;38.54
34031;BME280;20319;28.466;-16.274;2024-02-04T21:55:32;96300.66;;;14.33;38.50
34031;BME280;20319;28.466;-16.274;2024-02-04T21:57:58;96193.69;;;13.72;38.36
34031;BME280;20319;28.466;-16.274;2024-02-04T22:00:27;96344.94;;;14.52;38.48
34031;BME280;20319;28.466;-16.274;2024-02-04T22:02:54;96309.81;;;14.32;37.94
34031;BME280;20319;28.466;-16.274;2024-02-04T22:05:23;96251.97;;;13.93;37.31
34031;BME280;20319;28.466;-16.274;2024-02-04T22:07:51;96311.41;;;14.28;36.91
34031;BME280;20319;28.466;-16.274;2024-02-04T22:10:17;95681.38;;;10.18;36.89
34031;BME280;20319;28.466;-16.274;2024-02-04T22:12:43;96348.69;;;14.46;36.95
34031;BME280;20319;28.466;-16.274;2024-02-04T22:15:09;96314.31;;;14.22;36.24
34031;BME280;20319;28.466;-16.274;2024-02-04T22:17:38;96348.13;;;14.44;35.80
34031;BME280;20319;28.466;-16.274;2024-02-04T22:20:05;96288.91;;;14.08;35.86
34031;BME280;20319;28.466;-16.274;2024-02-04T22:22:32;96355.94;;;14.46;35.53
34031;BME280;20319;28.466;-16.274;2024-02-04T22:24:58;96360.53;;;14.45;35.56
34031;BME280;20319;28.466;-16.274;2024-02-04T22:27:24;96291.31;;;13.99;35.22
34031;BME280;20319;28.466;-16.274;2024-02-04T22:29:49;96322.94;;;14.24;35.18
34031;BME280;20319;28.466;-16.274;2024-02-04T22:32:16;96339.19;;;14.34;35.03
34031;BME280;20319;28.466;-16.274;2024-02-04T22:34:42;96286.22;;;14.03;35.18
34031;BME280;20319;28.466;-16.274;2024-02-04T22:37:10;96319.06;;;14.05;34.80
34031;BME280;20319;28.466;-16.274;2024-02-04T22:39:38;96342.94;;;14.28;34.94
34031;BME280;20319;28.466;-16.274;2024-02-04T22:42:06;96302.34;;;13.98;34.36
34031;BME280;20319;28.466;-16.274;2024-02-04T22:44:34;96359.66;;;14.35;34.61
34031;BME280;20319;28.466;-16.274;2024-02-04T22:47:00;96336.38;;;14.14;34.75
34031;BME280;20319;28.466;-16.274;2024-02-04T22:49:26;96363.97;;;14.31;34.76
34031;BME280;20319;28.466;-16.274;2024-02-04T22:51:51;96361.53;;;14.29;34.73
34031;BME280;20319;28.466;-16.274;2024-02-04T22:54:17;96286.66;;;13.90;34.59
34031;BME280;20319;28.466;-16.274;2024-02-04T22:56:43;96226.69;;;13.58;34.74
34031;BME280;20319;28.466;-16.274;2024-02-04T22:59:11;96295.28;;;13.87;34.72
34031;BME280;20319;28.466;-16.274;2024-02-04T23:01:40;96312.63;;;14.06;34.84
34031;BME280;20319;28.466;-16.274;2024-02-04T23:04:05;96185.63;;;12.99;34.80
34031;BME280;20319;28.466;-16.274;2024-02-04T23:06:31;96313.94;;;14.03;34.68
34031;BME280;20319;28.466;-16.274;2024-02-04T23:08:57;96350.66;;;14.19;34.68
34031;BME280;20319;28.466;-16.274;2024-02-04T23:11:24;96300.72;;;14.02;34.49
34031;BME280;20319;28.466;-16.274;2024-02-04T23:13:50;96332.38;;;14.21;34.36
34031;BME280;20319;28.466;-16.274;2024-02-04T23:16:16;96244.50;;;13.64;34.04
34031;BME280;20319;28.466;-16.274;2024-02-04T23:18:45;96316.94;;;14.12;33.95
34031;BME280;20319;28.466;-16.274;2024-02-04T23:21:14;95867.72;;;11.42;33.56
34031;BME280;20319;28.466;-16.274;2024-02-04T23:23:39;96259.94;;;13.78;33.65
34031;BME280;20319;28.466;-16.274;2024-02-04T23:26:05;96333.81;;;14.39;33.28
34031;BME280;20319;28.466;-16.274;2024-02-04T23:28:32;96334.38;;;14.46;32.92
34031;BME280;20319;28.466;-16.274;2024-02-04T23:30:58;96274.94;;;14.16;33.09
34031;BME280;20319;28.466;-16.274;2024-02-04T23:33:25;96265.22;;;14.10;32.69
34031;BME280;20319;28.466;-16.274;2024-02-04T23:35:52;96307.16;;;14.37;32.91
34031;BME280;20319;28.466;-16.274;2024-02-04T23:38:17;96171.28;;;13.57;32.62
34031;BME280;20319;28.466;-16.274;2024-02-04T23:40:45;96332.03;;;14.59;32.50
34031;BME280;20319;28.466;-16.274;2024-02-04T23:43:12;96315.53;;;14.41;32.71
34031;BME280;20319;28.466;-16.274;2024-02-04T23:45:39;96218.72;;;13.78;33.10
34031;BME280;20319;28.466;-16.274;2024-02-04T23:48:05;96316.03;;;14.38;33.29
34031;BME280;20319;28.466;-16.274;2024-02-04T23:50:31;96287.06;;;14.13;33.20
34031;BME280;20319;28.466;-16.274;2024-02-04T23:52:56;96300.34;;;14.25;33.05
34031;BME280;20319;28.466;-16.274;2024-02-04T23:55:22;96349.72;;;14.40;33.08
34031;BME280;20319;28.466;-16.274;2024-02-04T23:57:48;96338.47;;;14.48;33.02
